Ana Sayfa
METAR-TAF:

METAR-TAF

Havaalanları :

Pago Pago, ABD Küçük Dış Adaları

Enlem: 14-20S, Boylam: 170-43W, yükseklik: 3 m

Güncel hava durumu gözlemi

Rapor saat 02:50 UTC de 31 dakika önce yapıldı.
Rüzgar değişken yönden 6 kt
Sıcaklık 27°C
Nem 89%
Basınç 1009 hPa
Görüş mesafesi: 19.3 km
1400 ft yükseklikte parçalı bulutlu
4000 ft yükseklikte parçalı çok bulutlu
10000 ft yükseklikte çok bulutlu

METAR: NSTU 230250Z VRB06KT 12SM SCT014 BKN040 OVC100 27/25 A2979 RMK SLP088 60002 8/87/ T02740248 57005

Saat: 16:21 (03:21 UTC)

Tahmin

Rapor saat 23:40 UTC de 3 saat ve 41 dakika önce yapıldı.
Ayın 23'si saat 00 UTC'den ayın 23'si saat 24 UTC'ye kadar geçerli Tahmin
Rüzgar doğudan 9 kt
Görüş mesafesi: 10 km
1500 ft yükseklikte parçalı bulutlu
4000 ft yükseklikte parçalı çok bulutlu
10000 ft yükseklikte parçalı çok bulutlu
Civarda sağanaklar

TAF: NSTU 222340Z 2300/2324 08009KT P6SM VCSH SCT015 BKN040 BKN100

4.000'den fazla havaalanı için hava durumu gözlemleri ve tahminleri (METAR ve TAF raporları).

Kullanılabilir istasyonlar harita üzerinde sarı ve kırmızı noktalarla gösterilir.

İstasyonun adını görmek için fareyi noktanın üzerinde gezdirin.

Sonrasında hava gözlem ve tahminlerini görmek için tıklayın.

Haritayı değiştirmek için: yaklaştırmak için siyah artı işaretli yeşil düğmeye ve uzaklaştırmak için de eksi işaretli düğmeye hızla tıklayın; bitişik haritalar için yeşil okları kullanın.


METAR-TAF: